• Join FlightAware (Why Join?)
  • Login
  • US Flag 
08:13PM EDT


 

Airport Tracker/Info


-or-


 

Live Flight TrackerFlight Track Log ✈ EJA929 ✈ 31-May-2013 ✈ KOKC - KMKE

Flight Track Log - Related Links

Times and Time Zones

All times are in EDT time to prevent confusion due to time zone crossing. See the EJA929 flight status page for this flight to view local times or setup timezone preferences in your user account.

Time Position Orientation Groundspeed Altitude Reporting Facility
EDT Latitude Longitude Course Direction KTS MPH feet Rate Location/Type
12:09PM 35.3747 -97.5944 238° Southwest 172 198 1,900  Level Fort Worth Center
12:10PM 35.3539 -97.6350 238° Southwest 242 278 4,300 3,960 Climbing Fort Worth Center
12:11PM 35.4122 -97.6506 348° North 265 305 8,800 3,240 Climbing Fort Worth Center
12:13PM 35.6142 -97.6850 352° North 346 398 14,900 2,580 Climbing Kansas City Center
12:14PM 35.7242 -97.6453 16° North 402 463 17,800 2,220 Climbing Kansas City Center
12:15PM 35.8325 -97.5806 26° Northeast 417 480 19,500 1,560 Climbing Kansas City Center
12:17PM 35.9464 -97.5100 27° Northeast 435 501 21,100 1,620 Climbing Kansas City Center
12:18PM 36.0878 -97.4236 26° Northeast 456 525 22,900 1,560 Climbing Kansas City Center
12:19PM 36.2086 -97.3494 26° Northeast 475 547 24,400 1,020 Climbing Kansas City Center
12:20PM 36.3328 -97.2750 26° Northeast 488 562 25,000 240 Climbing Kansas City Center
12:21PM 36.4664 -97.1911 27° Northeast 524 603 25,000  Level Kansas City Center
12:22PM 36.6028 -97.1092 26° Northeast 542 624 25,000  Level Kansas City Center
12:23PM 36.7572 -97.0125 27° Northeast 552 635 25,000  Level Kansas City Center
12:24PM 36.8708 -96.9406 27° Northeast 549 632 25,000  Level Kansas City Center
12:25PM 37.0336 -96.8394 26° Northeast 546 628 25,000  Level Kansas City Center
12:26PM 37.1686 -96.7542 27° Northeast 546 628 25,000  Level Kansas City Center
12:27PM 37.3044 -96.6694 26° Northeast 546 628 25,000  Level Kansas City Center
12:28PM 37.4369 -96.5728 30° Northeast 549 632 25,000  Level Kansas City Center
12:29PM 37.5544 -96.4456 41° Northeast 553 636 25,000  Level Kansas City Center
12:30PM 37.6717 -96.3192 40° Northeast 556 640 25,000  Level Kansas City Center
12:31PM 37.7922 -96.1897 40° Northeast 566 651 25,000  Level Kansas City Center
12:32PM 37.9356 -96.0367 40° Northeast 558 642 25,000  Level Kansas City Center
12:33PM 38.0539 -95.9067 41° Northeast 566 651 25,000  Level Kansas City Center
12:34PM 38.1672 -95.7814 41° Northeast 565 650 25,000  Level Kansas City Center
12:35PM 38.3006 -95.6358 41° Northeast 566 651 25,000  Level Kansas City Center
12:36PM 38.4144 -95.5100 41° Northeast 565 650 25,000  Level Kansas City Center
12:37PM 38.5475 -95.3614 41° Northeast 570 656 25,000  Level Kansas City Center
12:38PM 38.6606 -95.2353 41° Northeast 566 651 25,000  Level Kansas City Center
12:39PM 38.7917 -95.0872 41° Northeast 566 651 25,000  Level Kansas City Center
12:40PM 38.9033 -94.9614 41° Northeast 564 649 25,000  Level Kansas City Center
12:41PM 39.0347 -94.8139 41° Northeast 567 652 25,000  Level Kansas City Center
12:42PM 39.1461 -94.6853 42° Northeast 566 651 25,000  Level Kansas City Center
12:43PM 39.2594 -94.5578 41° Northeast 567 652 25,000  Level Kansas City Center
12:44PM 39.3906 -94.4061 42° Northeast 569 655 25,000  Level Kansas City Center
12:45PM 39.5044 -94.2747 42° Northeast 566 651 25,000  Level Kansas City Center
12:46PM 39.6336 -94.1247 42° Northeast 567 652 25,000  Level Kansas City Center
12:47PM 39.7478 -93.9922 42° Northeast 565 650 25,000  Level Kansas City Center
12:48PM 39.8556 -93.8606 43° Northeast 571 657 25,000  Level Kansas City Center
12:49PM 39.9939 -93.6969 42° Northeast 563 648 25,000  Level Kansas City Center
12:50PM 40.1106 -93.5600 42° Northeast 566 651 25,000  Level Kansas City Center
12:51PM 40.2269 -93.4217 42° Northeast 566 651 25,000  Level Kansas City Center
12:53PM 40.3447 -93.2822 42° Northeast 570 656 25,000  Level Kansas City Center
12:54PM 40.4625 -93.1417 42° Northeast 571 657 25,000  Level Kansas City Center
12:55PM 40.5997 -92.9772 42° Northeast 573 659 25,000  Level Kansas City Center
12:55PM 40.6767 -92.8839 43° Northeast 572 658 25,000  Level Chicago Center
12:56PM 40.7944 -92.7414 42° Northeast 573 659 25,000  Level Chicago Center
12:57PM 40.9347 -92.5692 43° Northeast 574 661 25,000  Level Chicago Center
12:58PM 41.0514 -92.4267 43° Northeast 574 661 25,000  Level Chicago Center
12:59PM 41.1681 -92.2833 43° Northeast 574 661 25,000  Level Chicago Center
01:01PM 41.2761 -92.1486 43° Northeast 574 661 25,000  Level Chicago Center
01:02PM 41.4147 -91.9739 43° Northeast 575 662 25,000  Level Chicago Center
01:03PM 41.5297 -91.8300 43° Northeast 575 662 25,000  Level Chicago Center
01:04PM 41.6400 -91.6900 43° Northeast 559 643 25,000  Level Chicago Center
01:05PM 41.7483 -91.5533 43° Northeast 544 626 25,000  Level Chicago Center
01:06PM 41.8556 -91.4172 43° Northeast 539 620 25,000  Level Chicago Center
01:07PM 41.9831 -91.2522 44° Northeast 537 618 25,000  Level Chicago Center
01:08PM 42.0858 -91.1167 44° Northeast 528 608 25,000  Level Chicago Center
01:09PM 42.1425 -90.9450 66° East 507 583 25,000  Level Chicago Center
01:10PM 42.1844 -90.7633 73° East 512 589 25,000  Level Chicago Center
01:11PM 42.2342 -90.5472 73° East 511 588 25,000  Level Chicago Center
01:12PM 42.2750 -90.3661 73° East 511 588 25,000  Level Chicago Center
01:13PM 42.3169 -90.1850 73° East 511 588 25,000  Level Chicago Center
01:14PM 42.3581 -90.0042 73° East 510 587 25,000 -840 Level Chicago Center
01:15PM 42.4086 -89.7739 73° East 533 613 23,300 -1,560 Descending Chicago Center
01:16PM 42.4517 -89.5797 73° East 540 621 21,800 -1,500 Descending Chicago Center
01:17PM 42.4922 -89.3997 73° East 505 581 20,300 -1,500 Descending Chicago Center
01:18PM 42.5294 -89.2264 74° East 483 556 18,800 -1,500 Descending Chicago Center
01:19PM 42.5667 -89.0528 74° East 480 552 17,200 -1,800 Descending Chicago Center
01:20PM 42.6003 -88.8722 76° East 431 496 15,100 -1,860 Descending Chicago Center
01:21PM 42.6294 -88.7114 76° East 440 506 13,400 -1,500 Descending Chicago Center
01:22PM 42.6603 -88.5439 76° East 455 524 12,000 -1,320 Descending Chicago Center
01:23PM 42.6903 -88.3819 76° East 447 514 10,700 -1,020 Descending Chicago Center
01:24PM 42.7256 -88.2306 72° East 422 486 10,000 -1,500 Descending Chicago Center
01:25PM 42.7828 -88.1147 56° Northeast 317 365 7,600 -1,500 Descending Chicago Center
01:26PM 42.8319 -88.0150 56° Northeast 316 364 7,000 -300 Descending Chicago Center
01:27PM 42.8803 -87.9119 57° Northeast 323 372 7,000 -360 Level Chicago Center
01:28PM 42.9056 -87.8139 71° East 275 316 6,300 -960 Descending Chicago Center
01:30PM 42.9325 -87.7183 69° East 270 311 5,100 -1,320 Descending Chicago Center
01:31PM 42.9903 -87.6681 32° Northeast 274 315 3,600 -1,260 Descending Chicago Center
01:32PM 42.9839 -87.7353 263° West 220 253 2,500 -840 Descending Chicago Center
01:33PM 42.9647 -87.8111 251° West 210 242 1,900 -540 Descending Chicago Center
01:34PM 42.9486 -87.8739 251° West 206 237 1,400 -540 Descending Chicago Center
01:36PM 42.9333 -87.8833 246° West  Level FlightAware Approximate